createdAt,value
2017-08-14T00:03:36.364Z,6.72
2017-08-14T00:06:03.868Z,6.55
2017-08-14T00:08:31.366Z,6.90
2017-08-14T00:10:58.851Z,7.47
2017-08-14T00:13:26.401Z,7.28
2017-08-14T00:15:53.895Z,8.93
2017-08-14T00:18:21.401Z,8.05
2017-08-14T00:20:48.910Z,8.30
2017-08-14T00:23:17.170Z,6.80
2017-08-14T00:25:45.445Z,6.97
2017-08-14T00:28:12.954Z,6.68
2017-08-14T00:30:40.454Z,6.57
2017-08-14T00:33:07.938Z,7.00
2017-08-14T00:35:35.430Z,6.25
2017-08-14T00:38:03.000Z,6.93
2017-08-14T00:40:30.621Z,6.55
2017-08-14T00:42:58.894Z,7.00
2017-08-14T00:45:27.267Z,6.53
2017-08-14T00:47:55.667Z,8.23
2017-08-14T00:50:23.165Z,6.90
2017-08-14T00:52:52.133Z,6.32
2017-08-14T00:55:19.613Z,7.07
2017-08-14T00:57:47.110Z,6.90
2017-08-14T01:00:15.373Z,6.18
2017-08-14T01:02:42.887Z,6.93
2017-08-14T01:05:10.479Z,5.57
2017-08-14T01:07:37.963Z,5.57
2017-08-14T01:10:06.250Z,6.07
2017-08-14T01:12:34.518Z,6.62
2017-08-14T01:15:02.033Z,12.77
2017-08-14T01:17:29.532Z,6.50
2017-08-14T01:19:57.013Z,8.32
2017-08-14T01:22:24.543Z,9.70
2017-08-14T01:24:52.042Z,7.40
2017-08-14T01:27:19.558Z,7.65
2017-08-14T01:29:47.057Z,7.07
2017-08-14T01:32:14.563Z,7.47
2017-08-14T01:34:42.059Z,7.12
2017-08-14T01:37:10.313Z,7.30
2017-08-14T01:39:37.814Z,8.27
2017-08-14T01:42:05.358Z,7.57
2017-08-14T01:44:32.874Z,9.45
2017-08-14T01:47:00.383Z,9.18
2017-08-14T01:49:27.880Z,10.52
2017-08-14T01:51:55.422Z,8.98
2017-08-14T01:54:23.278Z,11.10
2017-08-14T01:56:50.778Z,12.68
2017-08-14T01:59:18.288Z,11.23
2017-08-14T02:01:45.776Z,8.98
2017-08-14T02:04:13.290Z,9.43
2017-08-14T02:06:40.930Z,9.13
2017-08-14T02:09:08.478Z,8.68
2017-08-14T02:11:35.970Z,9.18
2017-08-14T02:14:04.269Z,8.15
2017-08-14T02:16:31.759Z,9.15
2017-08-14T02:18:59.251Z,8.25
2017-08-14T02:21:26.766Z,8.20
2017-08-14T02:23:54.441Z,9.65
2017-08-14T02:26:21.936Z,8.60
2017-08-14T02:28:50.204Z,7.47
2017-08-14T02:31:17.710Z,7.30
2017-08-14T02:33:45.211Z,7.70
2017-08-14T02:36:12.692Z,7.97
2017-08-14T02:38:40.213Z,7.35
2017-08-14T02:41:07.715Z,6.68
2017-08-14T02:43:35.951Z,7.93
2017-08-14T02:46:03.459Z,8.27
2017-08-14T02:48:31.735Z,7.18
2017-08-14T02:50:59.999Z,8.02
2017-08-14T02:53:28.249Z,6.10
2017-08-14T02:55:55.779Z,8.95
2017-08-14T02:58:23.306Z,6.53
2017-08-14T03:00:50.801Z,7.25
2017-08-14T03:03:18.296Z,5.70
2017-08-14T03:05:45.803Z,6.05
2017-08-14T03:08:13.320Z,5.03
2017-08-14T03:10:40.845Z,6.00
2017-08-14T03:13:08.346Z,5.45
2017-08-14T03:15:36.614Z,5.40
2017-08-14T03:18:04.079Z,4.70
2017-08-14T03:20:32.353Z,4.95
2017-08-14T03:22:59.860Z,4.45
2017-08-14T03:25:27.357Z,4.85
2017-08-14T03:27:54.856Z,4.82
2017-08-14T03:30:22.360Z,6.22
2017-08-14T03:32:49.992Z,4.90
2017-08-14T03:35:17.489Z,5.53
2017-08-14T03:37:44.965Z,5.30
2017-08-14T03:40:12.453Z,5.32
2017-08-14T03:42:39.962Z,4.35
2017-08-14T03:45:07.474Z,5.18
2017-08-14T03:47:34.985Z,4.45
2017-08-14T03:50:02.489Z,5.90
2017-08-14T03:52:30.779Z,5.72
2017-08-14T03:54:58.260Z,6.95
2017-08-14T03:57:25.804Z,9.95
2017-08-14T03:59:53.298Z,4.60
2017-08-14T04:02:20.791Z,5.85
2017-08-14T04:04:49.070Z,3.65
2017-08-14T04:07:17.322Z,4.47
2017-08-14T04:09:44.803Z,5.35
2017-08-14T04:12:13.071Z,3.90
2017-08-14T04:14:40.598Z,4.43
2017-08-14T04:17:08.109Z,6.03
2017-08-14T04:19:35.597Z,6.95
2017-08-14T04:22:03.095Z,5.10
2017-08-14T04:24:30.569Z,6.65
2017-08-14T04:26:58.820Z,7.65
2017-08-14T04:29:26.317Z,5.57
2017-08-14T04:31:54.607Z,5.70
2017-08-14T04:34:22.104Z,4.50
2017-08-14T04:36:49.603Z,6.45
2017-08-14T04:39:17.099Z,12.43
2017-08-14T04:41:44.614Z,6.53
2017-08-14T04:44:13.039Z,5.00
2017-08-14T04:46:40.550Z,5.03
2017-08-14T04:49:08.092Z,5.97
2017-08-14T04:51:35.601Z,5.62
2017-08-14T04:54:03.093Z,5.82
2017-08-14T04:56:30.565Z,7.40
2017-08-14T04:58:58.048Z,4.75
2017-08-14T05:01:26.294Z,8.60
2017-08-14T05:03:53.782Z,9.63
2017-08-14T05:06:22.058Z,14.18
2017-08-14T05:08:50.328Z,5.43
2017-08-14T05:11:17.822Z,5.82
2017-08-14T05:13:45.330Z,6.43
2017-08-14T05:16:12.826Z,9.00
2017-08-14T05:18:40.296Z,4.75
2017-08-14T05:21:07.829Z,12.68
2017-08-14T05:23:36.493Z,4.95
2017-08-14T05:26:03.998Z,5.07
2017-08-14T05:28:31.503Z,4.75
2017-08-14T05:30:59.016Z,6.10
2017-08-14T05:33:26.540Z,4.97
2017-08-14T05:35:54.048Z,5.35
2017-08-14T05:38:21.546Z,5.07
2017-08-14T05:40:49.052Z,4.45
2017-08-14T05:43:16.574Z,4.90
2017-08-14T05:45:44.094Z,15.60
2017-08-14T05:48:11.682Z,8.35
2017-08-14T05:50:40.012Z,4.90
2017-08-14T05:53:07.507Z,6.87
2017-08-14T05:55:35.035Z,8.60
2017-08-14T05:58:02.537Z,5.82
2017-08-14T06:00:30.072Z,10.45
2017-08-14T06:05:34.500Z,8.02
2017-08-14T06:08:02.728Z,10.93
2017-08-14T06:10:30.226Z,5.00
2017-08-14T06:12:57.868Z,3.40
2017-08-14T06:15:25.360Z,7.47
2017-08-14T06:17:52.840Z,4.87
2017-08-14T06:20:20.457Z,4.65
2017-08-14T06:22:48.008Z,5.40
2017-08-14T06:25:15.602Z,6.45
2017-08-14T06:27:43.102Z,5.32
2017-08-14T06:30:10.601Z,7.03
2017-08-14T06:32:38.091Z,5.57
2017-08-14T06:35:05.608Z,3.53
2017-08-14T06:37:33.094Z,4.30
2017-08-14T06:40:00.608Z,4.75
2017-08-14T06:42:28.898Z,6.90
2017-08-14T06:44:57.156Z,6.18
2017-08-14T06:47:24.639Z,7.47
2017-08-14T06:49:52.159Z,7.97
2017-08-14T06:52:19.688Z,7.20
2017-08-14T06:54:47.270Z,6.03
2017-08-14T06:57:14.802Z,8.20
2017-08-14T06:59:42.310Z,3.87
2017-08-14T07:02:09.807Z,6.80
2017-08-14T07:04:37.810Z,5.00
2017-08-14T07:07:05.453Z,5.93
2017-08-14T07:09:33.045Z,4.87
2017-08-14T07:12:00.646Z,3.85
2017-08-14T07:14:28.974Z,7.82
2017-08-14T07:16:56.490Z,4.75
2017-08-14T07:19:23.991Z,6.40
2017-08-14T07:21:51.537Z,4.53
2017-08-14T07:24:19.057Z,3.12
2017-08-14T07:26:46.541Z,3.20
2017-08-14T07:29:14.044Z,7.82
2017-08-14T07:31:41.572Z,3.87
2017-08-14T07:34:09.074Z,3.95
2017-08-14T07:36:36.617Z,4.25
2017-08-14T07:39:04.104Z,6.35
2017-08-14T07:41:32.379Z,2.72
2017-08-14T07:43:59.880Z,5.37
2017-08-14T07:46:28.532Z,7.05
2017-08-14T07:48:56.785Z,6.75
2017-08-14T07:51:24.302Z,7.03
2017-08-14T07:53:51.825Z,6.65
2017-08-14T07:56:19.336Z,2.53
2017-08-14T07:58:46.829Z,4.47
2017-08-14T08:01:14.342Z,2.72
2017-08-14T08:03:41.850Z,3.87
2017-08-14T08:06:09.358Z,6.05
2017-08-14T08:08:36.891Z,6.97
2017-08-14T08:11:04.369Z,5.47
2017-08-14T08:13:31.896Z,3.85
2017-08-14T08:15:59.420Z,3.62
2017-08-14T08:18:27.108Z,2.85
2017-08-14T08:20:55.463Z,6.45
2017-08-14T08:23:22.995Z,4.68
2017-08-14T08:25:50.485Z,6.03
2017-08-14T08:28:18.122Z,5.80
2017-08-14T08:30:45.606Z,3.65
2017-08-14T08:33:13.155Z,5.47
2017-08-14T08:35:40.655Z,3.33
2017-08-14T08:38:08.171Z,8.57
2017-08-14T08:40:35.719Z,5.10
2017-08-14T08:43:03.679Z,3.22
2017-08-14T08:45:31.184Z,5.35
2017-08-14T08:47:58.668Z,3.45
2017-08-14T08:50:26.914Z,4.07
2017-08-14T08:52:54.735Z,8.32
2017-08-14T08:55:23.900Z,2.90
2017-08-14T08:57:51.511Z,3.42
2017-08-14T09:00:19.049Z,3.47
2017-08-14T09:02:46.568Z,4.75
2017-08-14T09:05:14.097Z,5.55
2017-08-14T09:07:41.618Z,3.85
2017-08-14T09:10:09.145Z,3.10
2017-08-14T09:12:36.641Z,4.82
2017-08-14T09:15:04.129Z,4.22
2017-08-14T09:17:31.682Z,5.15
2017-08-14T09:19:59.232Z,6.87
2017-08-14T09:22:26.732Z,3.33
2017-08-14T09:24:54.221Z,5.57
2017-08-14T09:27:22.507Z,7.18
2017-08-14T09:29:49.994Z,2.47
2017-08-14T09:32:17.514Z,2.70
2017-08-14T09:34:45.034Z,3.30
2017-08-14T09:37:13.428Z,4.25
2017-08-14T09:39:42.912Z,4.20
2017-08-14T09:42:10.430Z,3.47
2017-08-14T09:44:37.943Z,3.83
2017-08-14T09:47:05.437Z,3.28
2017-08-14T09:49:33.755Z,5.90
2017-08-14T09:52:01.296Z,4.57
2017-08-14T09:54:28.905Z,3.33
2017-08-14T09:56:56.415Z,2.33
2017-08-14T09:59:23.909Z,7.93
2017-08-14T10:01:51.423Z,2.20
2017-08-14T10:04:18.922Z,2.65
2017-08-14T10:06:46.417Z,4.45
2017-08-14T10:09:13.928Z,4.85
2017-08-14T10:11:41.477Z,2.40
2017-08-14T10:14:08.991Z,4.53
2017-08-14T10:16:36.478Z,2.90
2017-08-14T10:19:03.961Z,8.73
2017-08-14T10:21:31.622Z,2.70
2017-08-14T10:23:59.108Z,4.37
2017-08-14T10:26:26.597Z,2.85
2017-08-14T10:28:54.877Z,3.15
2017-08-14T10:31:24.567Z,2.95
2017-08-14T10:33:52.055Z,4.70
2017-08-14T10:36:20.375Z,4.28
2017-08-14T10:38:47.859Z,2.90
2017-08-14T10:41:15.360Z,4.00
2017-08-14T10:43:42.913Z,2.90
2017-08-14T10:46:10.400Z,1.77
2017-08-14T10:48:37.951Z,2.62
2017-08-14T10:51:05.472Z,2.75
2017-08-14T10:53:33.778Z,4.90
2017-08-14T10:56:02.123Z,3.57
2017-08-14T10:58:29.672Z,2.70
2017-08-14T11:00:57.177Z,2.03
2017-08-14T11:03:24.677Z,2.93
2017-08-14T11:05:52.173Z,2.77
2017-08-14T11:08:19.770Z,4.67
2017-08-14T11:10:47.286Z,4.57
2017-08-14T11:13:14.782Z,3.27
2017-08-14T11:15:42.285Z,3.87
2017-08-14T11:18:09.814Z,1.83
2017-08-14T11:20:37.305Z,2.50
2017-08-14T11:23:04.805Z,1.57
2017-08-14T11:25:32.291Z,3.33
2017-08-14T11:27:59.800Z,1.90
2017-08-14T11:30:28.059Z,2.80
2017-08-14T11:32:55.577Z,1.83
2017-08-14T11:35:23.099Z,2.83
2017-08-14T11:37:50.599Z,3.17
2017-08-14T11:40:18.168Z,1.90
2017-08-14T11:42:45.666Z,4.07
2017-08-14T11:45:13.141Z,2.97
2017-08-14T11:47:40.647Z,4.07
2017-08-14T11:50:08.166Z,1.87
2017-08-14T11:52:36.433Z,1.50
2017-08-14T11:55:04.743Z,2.70
2017-08-14T11:57:32.244Z,1.60
2017-08-14T11:59:59.757Z,2.70
2017-08-14T12:02:27.244Z,1.40
2017-08-14T12:04:54.749Z,1.87
2017-08-14T12:07:23.016Z,3.93
2017-08-14T12:09:51.267Z,3.60
2017-08-14T12:12:19.574Z,3.17
2017-08-14T12:14:47.886Z,1.40
2017-08-14T12:17:15.374Z,2.30
2017-08-14T12:19:42.867Z,2.23
2017-08-14T12:22:10.401Z,2.70
2017-08-14T12:24:38.105Z,3.37
2017-08-14T12:27:05.626Z,4.00
2017-08-14T12:29:33.115Z,4.13
2017-08-14T12:32:00.604Z,3.93
2017-08-14T12:34:28.219Z,2.53
2017-08-14T12:36:55.729Z,3.67
2017-08-14T12:39:23.233Z,4.60
2017-08-14T12:41:50.728Z,2.77
2017-08-14T12:44:18.226Z,4.93
2017-08-14T12:46:45.735Z,2.20
2017-08-14T12:49:14.089Z,2.30
2017-08-14T12:51:42.519Z,4.40
2017-08-14T12:54:10.024Z,3.67
2017-08-14T12:56:38.322Z,4.82
2017-08-14T12:59:06.577Z,2.00
2017-08-14T13:01:34.863Z,2.30
2017-08-14T13:04:02.369Z,2.25
2017-08-14T13:06:29.866Z,2.45
2017-08-14T13:08:57.384Z,2.37
2017-08-14T13:11:24.901Z,4.53
2017-08-14T13:13:52.383Z,2.83
2017-08-14T13:16:19.895Z,2.75
2017-08-14T13:18:47.400Z,5.10
2017-08-14T13:21:15.017Z,3.45
2017-08-14T13:23:42.542Z,2.55
2017-08-14T13:26:10.151Z,2.55
2017-08-14T13:28:37.657Z,2.20
2017-08-14T13:31:05.151Z,4.00
2017-08-14T13:33:32.694Z,4.80
2017-08-14T13:36:00.224Z,2.40
2017-08-14T13:38:27.730Z,4.83
2017-08-14T13:40:55.216Z,2.63
2017-08-14T13:43:23.475Z,3.63
2017-08-14T13:45:50.998Z,4.60
2017-08-14T13:48:18.507Z,2.47
2017-08-14T13:50:46.012Z,2.40
2017-08-14T13:53:13.507Z,2.50
2017-08-14T13:55:40.999Z,2.58
2017-08-14T13:58:09.291Z,3.58
2017-08-14T14:00:36.832Z,2.22
2017-08-14T14:03:04.330Z,1.90
2017-08-14T14:05:31.878Z,2.70
2017-08-14T14:07:59.372Z,4.20
2017-08-14T14:10:26.860Z,2.30
2017-08-14T14:12:54.344Z,2.00
2017-08-14T14:15:21.951Z,3.47
2017-08-14T14:17:49.476Z,3.85
2017-08-14T14:20:17.036Z,2.80
2017-08-14T14:22:45.262Z,1.90
2017-08-14T14:25:12.862Z,2.90
2017-08-14T14:27:40.354Z,8.35
2017-08-14T14:30:07.877Z,2.83
2017-08-14T14:32:35.358Z,2.70
2017-08-14T14:35:02.928Z,3.08
2017-08-14T14:37:30.432Z,3.55
2017-08-14T14:39:57.950Z,3.17
2017-08-14T14:42:25.541Z,2.28
2017-08-14T14:44:53.040Z,7.28
2017-08-14T14:47:20.548Z,2.67
2017-08-14T14:49:48.050Z,3.78
2017-08-14T14:52:15.615Z,3.03
2017-08-14T14:54:43.267Z,5.37
2017-08-14T14:57:11.511Z,3.50
2017-08-14T14:59:39.048Z,2.67
2017-08-14T15:02:06.546Z,2.90
2017-08-14T15:04:34.072Z,3.28
2017-08-14T15:07:01.601Z,2.28
2017-08-14T15:09:29.163Z,3.17
2017-08-14T15:11:56.673Z,2.50
2017-08-14T15:14:24.193Z,7.45
2017-08-14T15:16:51.708Z,4.18
2017-08-14T15:19:19.223Z,2.58
2017-08-14T15:21:46.742Z,2.60
2017-08-14T15:24:15.026Z,4.43
2017-08-14T15:26:42.509Z,2.12
2017-08-14T15:29:10.004Z,2.47
2017-08-14T15:31:37.521Z,2.60
2017-08-14T15:34:05.015Z,3.03
2017-08-14T15:36:32.500Z,3.67
2017-08-14T15:39:00.855Z,1.92
2017-08-14T15:41:28.477Z,1.80
2017-08-14T15:43:55.983Z,2.20
2017-08-14T15:46:23.516Z,4.75
2017-08-14T15:48:51.024Z,6.80
2017-08-14T15:51:19.285Z,2.55
2017-08-14T15:53:46.878Z,1.90
2017-08-14T15:56:14.422Z,5.32
2017-08-14T15:58:42.689Z,2.65
2017-08-14T16:01:10.983Z,3.53
2017-08-14T16:03:39.225Z,3.75
2017-08-14T16:06:06.746Z,2.67
2017-08-14T16:08:34.318Z,3.45
2017-08-14T16:11:01.833Z,4.00
2017-08-14T16:13:30.115Z,2.75
2017-08-14T16:15:57.623Z,7.37
2017-08-14T16:18:25.109Z,3.33
2017-08-14T16:20:52.627Z,2.97
2017-08-14T16:23:20.158Z,3.00
2017-08-14T16:25:47.670Z,2.50
2017-08-14T16:28:15.183Z,3.08
2017-08-14T16:30:42.698Z,6.65
2017-08-14T16:33:10.180Z,3.95
2017-08-14T16:35:38.454Z,2.65
2017-08-14T16:38:06.749Z,2.42
2017-08-14T16:40:34.232Z,2.90
2017-08-14T16:43:01.755Z,5.12
2017-08-14T16:45:29.269Z,5.35
2017-08-14T16:47:56.815Z,3.58
2017-08-14T16:50:24.313Z,4.85
2017-08-14T16:52:51.846Z,3.25
2017-08-14T16:55:19.350Z,3.25
2017-08-14T16:57:47.700Z,9.40
2017-08-14T17:00:15.246Z,5.40
2017-08-14T17:02:42.739Z,4.03
2017-08-14T17:05:10.981Z,4.57
2017-08-14T17:07:38.563Z,3.85
2017-08-14T17:10:06.051Z,5.10
2017-08-14T17:12:34.819Z,4.97
2017-08-14T17:15:02.454Z,6.15
2017-08-14T17:17:30.007Z,10.13
2017-08-14T17:19:57.525Z,6.82
2017-08-14T17:22:26.320Z,4.12
2017-08-14T17:24:53.860Z,5.05
2017-08-14T17:27:21.444Z,4.20
2017-08-14T17:29:49.057Z,4.62
2017-08-14T17:32:16.583Z,4.85
2017-08-14T17:34:44.285Z,6.65
2017-08-14T17:37:12.013Z,2.90
2017-08-14T17:39:40.556Z,4.43
2017-08-14T17:42:08.111Z,5.40
2017-08-14T17:44:35.677Z,4.35
2017-08-14T17:47:03.948Z,9.18
2017-08-14T17:49:32.297Z,4.80
2017-08-14T17:51:59.871Z,3.90
2017-08-14T17:54:28.172Z,4.40
2017-08-14T17:56:55.839Z,5.35
2017-08-14T17:59:23.343Z,4.60
2017-08-14T18:01:50.874Z,11.23
2017-08-14T18:04:19.574Z,22.73
2017-08-14T18:06:47.161Z,7.40
2017-08-14T18:09:15.611Z,6.40
2017-08-14T18:11:43.132Z,5.12
2017-08-14T18:14:10.713Z,5.22
2017-08-14T18:16:38.268Z,6.60
2017-08-14T18:19:05.795Z,5.85
2017-08-14T18:21:33.667Z,7.30
2017-08-14T18:24:01.293Z,5.55
2017-08-14T18:26:28.868Z,6.15
2017-08-14T18:28:57.332Z,6.70
2017-08-14T18:31:24.860Z,10.32
2017-08-14T18:33:52.768Z,7.43
2017-08-14T18:36:20.515Z,6.53
2017-08-14T18:38:48.080Z,6.00
2017-08-14T18:41:15.744Z,6.30
2017-08-14T18:43:43.299Z,5.87
2017-08-14T18:46:10.868Z,6.28
2017-08-14T18:48:38.459Z,10.45
2017-08-14T18:51:05.992Z,6.00
2017-08-14T18:53:33.491Z,8.30
2017-08-14T18:56:02.814Z,6.78
2017-08-14T18:58:30.341Z,6.53
2017-08-14T19:00:57.965Z,6.55
2017-08-14T19:03:25.471Z,6.93
2017-08-14T19:05:52.982Z,6.37
2017-08-14T19:08:22.284Z,6.53
2017-08-14T19:10:48.021Z,7.80
2017-08-14T19:13:15.544Z,7.82
2017-08-14T19:15:43.217Z,6.00
2017-08-14T19:18:10.699Z,6.32
2017-08-14T19:20:38.199Z,8.65
2017-08-14T19:23:06.470Z,9.18
2017-08-14T19:25:34.759Z,5.12
2017-08-14T19:28:03.149Z,6.30
2017-08-14T19:30:30.654Z,6.05
2017-08-14T19:32:58.165Z,7.45
2017-08-14T19:35:25.774Z,6.62
2017-08-14T19:37:53.303Z,7.47
2017-08-14T19:40:20.831Z,7.40
2017-08-14T19:42:48.330Z,7.03
2017-08-14T19:45:15.854Z,15.18
2017-08-14T19:47:44.138Z,9.88
2017-08-14T19:50:12.447Z,6.55
2017-08-14T19:52:39.976Z,10.20
2017-08-14T19:55:07.504Z,11.60
2017-08-14T19:57:35.078Z,8.48
2017-08-14T20:00:02.586Z,9.45
2017-08-14T20:02:30.069Z,6.32
2017-08-14T20:04:57.594Z,8.45
2017-08-14T20:07:25.094Z,8.77
2017-08-14T20:09:52.792Z,8.18
2017-08-14T20:12:20.383Z,10.27
2017-08-14T20:14:47.904Z,8.55
2017-08-14T20:17:15.595Z,7.22
2017-08-14T20:19:43.432Z,6.47
2017-08-14T20:22:10.937Z,6.85
2017-08-14T20:24:38.464Z,8.40
2017-08-14T20:27:06.645Z,11.55
2017-08-14T20:29:34.141Z,10.43
2017-08-14T20:32:01.655Z,12.63
2017-08-14T20:34:29.207Z,17.85
2017-08-14T20:36:57.541Z,8.90
2017-08-14T20:39:25.296Z,10.80
2017-08-14T20:41:52.836Z,7.65
2017-08-14T20:44:20.707Z,7.82
2017-08-14T20:46:48.231Z,10.13
2017-08-14T20:49:16.579Z,10.93
2017-08-14T20:51:44.170Z,7.57
2017-08-14T20:54:12.515Z,7.07
2017-08-14T20:56:40.086Z,7.37
2017-08-14T20:59:07.584Z,6.20
2017-08-14T21:01:35.093Z,6.70
2017-08-14T21:04:02.600Z,14.85
2017-08-14T21:06:31.151Z,12.98
2017-08-14T21:08:58.728Z,6.97
2017-08-14T21:11:26.241Z,9.65
2017-08-14T21:13:53.730Z,6.40
2017-08-14T21:16:21.247Z,9.57
2017-08-14T21:18:48.731Z,7.75
2017-08-14T21:21:16.231Z,7.65
2017-08-14T21:23:43.813Z,6.50
2017-08-14T21:26:11.335Z,6.93
2017-08-14T21:28:38.835Z,7.37
2017-08-14T21:31:06.334Z,6.87
2017-08-14T21:33:33.840Z,8.15
2017-08-14T21:36:01.342Z,8.02
2017-08-14T21:38:28.863Z,7.10
2017-08-14T21:40:56.391Z,6.35
2017-08-14T21:43:23.934Z,6.45
2017-08-14T21:45:51.483Z,6.55
2017-08-14T21:48:18.985Z,7.10
2017-08-14T21:50:47.247Z,8.77
2017-08-14T21:53:14.842Z,7.57
2017-08-14T21:55:42.376Z,11.70
2017-08-14T21:58:10.660Z,13.15
2017-08-14T22:00:39.026Z,17.67
2017-08-14T22:03:06.583Z,7.70
2017-08-14T22:05:34.206Z,10.32
2017-08-14T22:08:01.815Z,10.70
2017-08-14T22:10:29.381Z,7.45
2017-08-14T22:12:57.658Z,13.07
2017-08-14T22:15:25.956Z,7.18
2017-08-14T22:17:53.452Z,7.85
2017-08-14T22:20:20.946Z,6.80
2017-08-14T22:22:48.459Z,8.27
2017-08-14T22:25:15.979Z,6.35
2017-08-14T22:27:43.491Z,6.30
2017-08-14T22:30:11.000Z,7.15
2017-08-14T22:32:38.520Z,9.02
2017-08-14T22:35:06.017Z,6.00
2017-08-14T22:37:33.608Z,8.60
2017-08-14T22:40:01.127Z,7.22
2017-08-14T22:42:29.425Z,6.50
2017-08-14T22:44:56.945Z,6.97
2017-08-14T22:47:24.476Z,9.57
2017-08-14T22:49:52.056Z,6.25
2017-08-14T22:52:19.613Z,5.68
2017-08-14T22:54:47.165Z,7.10
2017-08-14T22:57:14.698Z,6.90
2017-08-14T22:59:42.302Z,9.43
2017-08-14T23:02:09.959Z,10.93
2017-08-14T23:04:37.556Z,8.57
2017-08-14T23:07:05.824Z,7.05
2017-08-14T23:09:34.092Z,5.35
2017-08-14T23:12:02.579Z,7.07
2017-08-14T23:14:30.869Z,5.90
2017-08-14T23:16:59.116Z,5.95
2017-08-14T23:19:26.922Z,10.45
2017-08-14T23:21:54.454Z,6.30
2017-08-14T23:24:22.727Z,6.60
2017-08-14T23:26:51.159Z,6.40
2017-08-14T23:29:18.673Z,5.82
2017-08-14T23:31:46.946Z,6.85
2017-08-14T23:34:14.433Z,7.55
2017-08-14T23:36:41.936Z,6.75
2017-08-14T23:39:09.478Z,7.40
2017-08-14T23:41:37.043Z,7.55
2017-08-14T23:44:04.549Z,8.10
2017-08-14T23:46:32.060Z,8.82
2017-08-14T23:48:59.556Z,7.00
2017-08-14T23:51:27.100Z,6.75
2017-08-14T23:53:54.620Z,6.32
2017-08-14T23:56:22.129Z,5.82
2017-08-14T23:58:49.625Z,7.07
